Terminal Aerodrome Forecast
Issued by NWS Tiyan, Guam

Home | Current Version | Previous Version | Text Only | Print | Product List | Glossary On
Versions: 1 2 3 4 5 6 7 8 9 10 11 12 13 14
000
FTPQ31 PGUM 191730
TAFGUM
TAF
PGUM 191730Z 1918/2024 07011KT P6SM FEW025
     FM200100 07012G22KT P6SM FEW025 SCT050
     FM200800 07011KT P6SM VCSH FEW020 SCT050=

USA.gov is the U.S. government's official web portal to all federal, state and local government web resources and services.